createdAt,value
2017-06-15T00:00:21.679Z,0.00
2017-06-15T00:01:17.982Z,0.00
2017-06-15T00:02:14.249Z,0.00
2017-06-15T00:03:10.511Z,0.00
2017-06-15T00:04:06.759Z,0.00
2017-06-15T00:05:03.014Z,0.00
2017-06-15T00:05:59.266Z,0.00
2017-06-15T00:06:55.522Z,0.00
2017-06-15T00:07:51.783Z,0.00
2017-06-15T00:08:48.026Z,0.00
2017-06-15T00:09:44.279Z,0.00
2017-06-15T00:10:40.527Z,0.00
2017-06-15T00:11:36.773Z,0.00
2017-06-15T00:12:33.031Z,0.00
2017-06-15T00:13:29.298Z,0.00
2017-06-15T00:14:25.559Z,0.00
2017-06-15T00:15:21.826Z,0.00
2017-06-15T00:16:18.070Z,0.00
2017-06-15T00:17:14.303Z,0.00
2017-06-15T00:18:10.569Z,0.00
2017-06-15T00:19:06.826Z,0.00
2017-06-15T00:20:03.079Z,0.00
2017-06-15T00:20:59.327Z,0.00
2017-06-15T00:21:55.583Z,0.00
2017-06-15T00:22:51.843Z,0.00
2017-06-15T00:23:48.086Z,0.00
2017-06-15T00:24:44.323Z,0.00
2017-06-15T00:25:40.575Z,0.00
2017-06-15T00:26:36.819Z,0.00
2017-06-15T00:27:33.059Z,0.00
2017-06-15T00:28:29.331Z,0.00
2017-06-15T00:29:25.615Z,0.00
2017-06-15T00:30:21.858Z,0.00
2017-06-15T00:31:18.107Z,0.00
2017-06-15T00:32:14.354Z,0.00
2017-06-15T00:33:10.611Z,0.00
2017-06-15T00:34:06.861Z,0.00
2017-06-15T00:35:03.110Z,0.00
2017-06-15T00:35:59.359Z,0.00
2017-06-15T00:36:55.601Z,0.00
2017-06-15T00:37:51.851Z,0.00
2017-06-15T00:38:48.105Z,0.00
2017-06-15T00:39:44.375Z,0.00
2017-06-15T00:40:40.607Z,0.00
2017-06-15T00:41:36.859Z,0.00
2017-06-15T00:42:33.118Z,0.00
2017-06-15T00:43:29.364Z,0.00
2017-06-15T00:44:25.643Z,0.00
2017-06-15T00:45:21.917Z,0.00
2017-06-15T00:46:18.159Z,0.00
2017-06-15T00:47:14.407Z,0.00
2017-06-15T00:48:10.655Z,0.00
2017-06-15T00:49:06.912Z,0.00
2017-06-15T00:50:03.167Z,0.00
2017-06-15T00:50:59.430Z,0.00
2017-06-15T00:51:55.675Z,0.00
2017-06-15T00:52:51.922Z,0.00
2017-06-15T00:53:48.166Z,0.00
2017-06-15T00:54:44.411Z,0.00
2017-06-15T00:55:40.676Z,0.00
2017-06-15T00:56:36.931Z,0.00
2017-06-15T00:57:33.166Z,0.00
2017-06-15T00:58:29.419Z,0.00
2017-06-15T00:59:25.686Z,0.00
2017-06-15T01:00:21.955Z,0.00
2017-06-15T01:01:18.243Z,0.00
2017-06-15T01:02:14.491Z,0.00
2017-06-15T01:03:10.735Z,0.00
2017-06-15T01:04:06.983Z,0.00
2017-06-15T01:05:03.222Z,0.00
2017-06-15T01:05:59.479Z,0.00
2017-06-15T01:06:55.731Z,0.00
2017-06-15T01:07:51.978Z,0.00
2017-06-15T01:08:48.233Z,0.00
2017-06-15T01:09:44.470Z,0.00
2017-06-15T01:10:40.714Z,0.00
2017-06-15T01:11:36.995Z,0.00
2017-06-15T01:12:33.250Z,0.00
2017-06-15T01:13:29.496Z,0.00
2017-06-15T01:14:25.739Z,0.00
2017-06-15T01:15:21.995Z,0.00
2017-06-15T01:16:18.253Z,0.00
2017-06-15T01:17:14.514Z,0.00
2017-06-15T01:18:10.767Z,0.00
2017-06-15T01:19:07.007Z,0.00
2017-06-15T01:20:03.246Z,0.00
2017-06-15T01:20:59.483Z,0.00
2017-06-15T01:21:55.766Z,0.00
2017-06-15T01:22:52.004Z,0.00
2017-06-15T01:23:48.259Z,0.00
2017-06-15T01:24:44.503Z,0.00
2017-06-15T01:25:40.738Z,0.00
2017-06-15T01:26:36.984Z,0.00
2017-06-15T01:27:33.235Z,0.00
2017-06-15T01:28:29.477Z,0.00
2017-06-15T01:29:25.710Z,0.00
2017-06-15T01:30:21.947Z,0.00
2017-06-15T01:31:18.207Z,0.00
2017-06-15T01:32:14.489Z,0.00
2017-06-15T01:33:10.734Z,0.00
2017-06-15T01:34:06.979Z,0.00
2017-06-15T01:35:03.214Z,0.00
2017-06-15T01:35:59.454Z,0.00
2017-06-15T01:36:55.678Z,0.00
2017-06-15T01:37:51.951Z,0.00
2017-06-15T01:38:48.195Z,0.00
2017-06-15T01:39:44.457Z,0.00
2017-06-15T01:40:40.695Z,0.00
2017-06-15T01:41:36.946Z,0.00
2017-06-15T01:42:33.182Z,0.00
2017-06-15T01:43:29.447Z,0.00
2017-06-15T01:44:25.687Z,0.00
2017-06-15T01:45:21.943Z,0.00
2017-06-15T01:46:18.203Z,0.00
2017-06-15T01:47:14.442Z,0.00
2017-06-15T01:48:10.683Z,0.00
2017-06-15T01:49:06.938Z,0.00
2017-06-15T01:50:03.183Z,0.00
2017-06-15T01:50:59.422Z,0.00
2017-06-15T01:51:55.670Z,0.00
2017-06-15T01:52:51.928Z,0.00
2017-06-15T01:53:48.188Z,0.00
2017-06-15T01:54:44.471Z,0.00
2017-06-15T01:55:40.735Z,0.00
2017-06-15T01:56:36.985Z,0.00
2017-06-15T01:57:33.226Z,0.00
2017-06-15T01:58:29.475Z,0.00
2017-06-15T01:59:25.734Z,0.00
2017-06-15T02:00:22.087Z,0.00
2017-06-15T02:01:18.331Z,0.00
2017-06-15T02:02:14.579Z,0.00
2017-06-15T02:03:10.834Z,0.00
2017-06-15T02:04:07.086Z,0.00
2017-06-15T02:05:03.356Z,0.00
2017-06-15T02:05:59.615Z,0.00
2017-06-15T02:06:55.850Z,0.00
2017-06-15T02:07:52.091Z,0.00
2017-06-15T02:08:48.354Z,0.00
2017-06-15T02:09:44.626Z,0.00
2017-06-15T02:10:40.869Z,0.00
2017-06-15T02:11:37.120Z,0.00
2017-06-15T02:12:33.364Z,0.00
2017-06-15T02:13:29.603Z,0.00
2017-06-15T02:14:25.843Z,0.00
2017-06-15T02:15:22.119Z,0.00
2017-06-15T02:16:18.359Z,0.00
2017-06-15T02:17:14.631Z,0.00
2017-06-15T02:18:10.888Z,0.00
2017-06-15T02:19:07.130Z,0.00
2017-06-15T02:20:03.383Z,0.00
2017-06-15T02:20:59.655Z,0.00
2017-06-15T02:21:55.905Z,0.00
2017-06-15T02:22:52.138Z,0.00
2017-06-15T02:23:48.380Z,0.00
2017-06-15T02:24:44.627Z,0.00
2017-06-15T02:25:40.899Z,0.00
2017-06-15T02:26:37.142Z,0.00
2017-06-15T02:27:33.383Z,0.00
2017-06-15T02:28:29.622Z,0.00
2017-06-15T02:29:25.866Z,0.00
2017-06-15T02:30:22.111Z,0.00
2017-06-15T02:31:18.371Z,0.00
2017-06-15T02:32:14.611Z,0.00
2017-06-15T02:33:10.850Z,0.00
2017-06-15T02:34:07.104Z,0.00
2017-06-15T02:35:03.343Z,0.00
2017-06-15T02:35:59.598Z,0.00
2017-06-15T02:36:55.863Z,0.00
2017-06-15T02:37:52.098Z,0.00
2017-06-15T02:38:48.363Z,0.00
2017-06-15T02:39:44.614Z,0.00
2017-06-15T02:40:40.856Z,0.00
2017-06-15T02:41:37.099Z,0.00
2017-06-15T02:42:33.371Z,0.00
2017-06-15T02:43:29.615Z,0.00
2017-06-15T02:44:25.854Z,0.00
2017-06-15T02:45:22.100Z,0.00
2017-06-15T02:46:18.349Z,1.00
2017-06-15T02:47:14.631Z,1.00
2017-06-15T02:48:10.876Z,1.00
2017-06-15T02:49:07.127Z,1.00
2017-06-15T02:50:03.367Z,1.00
2017-06-15T02:50:59.614Z,1.00
2017-06-15T02:51:55.854Z,1.00
2017-06-15T02:52:52.112Z,1.00
2017-06-15T02:53:48.342Z,1.00
2017-06-15T02:54:44.586Z,1.00
2017-06-15T02:55:40.827Z,2.00
2017-06-15T02:56:37.083Z,2.00
2017-06-15T02:57:33.342Z,2.00
2017-06-15T02:58:29.599Z,2.00
2017-06-15T02:59:25.839Z,2.00
2017-06-15T03:00:22.075Z,3.00
2017-06-15T03:01:18.318Z,3.00
2017-06-15T03:02:14.550Z,3.00
2017-06-15T03:03:10.794Z,4.00
2017-06-15T03:04:07.042Z,4.00
2017-06-15T03:05:03.291Z,4.00
2017-06-15T03:05:59.535Z,5.00
2017-06-15T03:06:55.788Z,5.00
2017-06-15T03:07:52.030Z,5.00
2017-06-15T03:08:48.283Z,6.00
2017-06-15T03:09:44.523Z,6.00
2017-06-15T03:10:40.764Z,7.00
2017-06-15T03:11:37.003Z,7.00
2017-06-15T03:12:33.243Z,8.00
2017-06-15T03:13:29.501Z,9.00
2017-06-15T03:14:25.765Z,10.00
2017-06-15T03:15:21.998Z,10.00
2017-06-15T03:16:18.251Z,11.00
2017-06-15T03:17:14.495Z,12.00
2017-06-15T03:18:10.757Z,13.00
2017-06-15T03:19:07.014Z,13.00
2017-06-15T03:20:03.267Z,14.00
2017-06-15T03:20:59.506Z,15.00
2017-06-15T03:21:55.743Z,16.00
2017-06-15T03:22:51.987Z,17.00
2017-06-15T03:23:48.231Z,17.00
2017-06-15T03:24:44.503Z,18.00
2017-06-15T03:25:40.740Z,19.00
2017-06-15T03:26:36.987Z,20.00
2017-06-15T03:27:33.243Z,21.00
2017-06-15T03:28:29.490Z,23.00
2017-06-15T03:29:25.734Z,24.00
2017-06-15T03:30:22.005Z,25.00
2017-06-15T03:31:18.254Z,26.00
2017-06-15T03:32:14.491Z,27.00
2017-06-15T03:33:10.749Z,28.00
2017-06-15T03:34:06.987Z,30.00
2017-06-15T03:35:03.246Z,31.00
2017-06-15T03:35:59.486Z,32.00
2017-06-15T03:36:55.725Z,33.00
2017-06-15T03:37:51.963Z,35.00
2017-06-15T03:38:48.198Z,36.00
2017-06-15T03:39:44.438Z,37.00
2017-06-15T03:40:40.706Z,39.00
2017-06-15T03:41:36.951Z,40.00
2017-06-15T03:42:33.198Z,42.00
2017-06-15T03:43:29.476Z,43.00
2017-06-15T03:44:25.715Z,45.00
2017-06-15T03:45:21.950Z,46.00
2017-06-15T03:46:18.242Z,47.00
2017-06-15T03:47:14.491Z,49.00
2017-06-15T03:48:10.734Z,50.00
2017-06-15T03:49:07.106Z,52.00
2017-06-15T03:50:03.354Z,53.00
2017-06-15T03:50:59.614Z,55.00
2017-06-15T03:51:55.879Z,56.00
2017-06-15T03:52:52.130Z,58.00
2017-06-15T03:53:48.400Z,59.00
2017-06-15T03:54:44.650Z,61.00
2017-06-15T03:55:40.890Z,62.00
2017-06-15T03:56:37.168Z,64.00
2017-06-15T03:57:33.418Z,65.00
2017-06-15T03:58:29.674Z,66.00
2017-06-15T03:59:25.914Z,68.00
2017-06-15T04:00:22.152Z,69.00
2017-06-15T04:01:18.403Z,70.00
2017-06-15T04:02:14.663Z,71.00
2017-06-15T04:03:10.918Z,72.00
2017-06-15T04:04:07.170Z,73.00
2017-06-15T04:05:03.426Z,73.00
2017-06-15T04:05:59.675Z,73.00
2017-06-15T04:06:55.914Z,74.00
2017-06-15T04:07:52.179Z,74.00
2017-06-15T04:08:48.431Z,75.00
2017-06-15T04:09:44.688Z,75.00
2017-06-15T04:10:40.927Z,76.00
2017-06-15T04:11:37.190Z,76.00
2017-06-15T04:12:33.442Z,77.00
2017-06-15T04:13:29.701Z,78.00
2017-06-15T04:14:25.958Z,79.00
2017-06-15T04:15:22.198Z,80.00
2017-06-15T04:16:18.446Z,81.00
2017-06-15T04:17:14.706Z,82.00
2017-06-15T04:18:10.950Z,83.00
2017-06-15T04:19:07.215Z,84.00
2017-06-15T04:20:03.466Z,85.00
2017-06-15T04:20:59.711Z,86.00
2017-06-15T04:21:55.979Z,86.00
2017-06-15T04:22:52.226Z,87.00
2017-06-15T04:23:48.515Z,88.00
2017-06-15T04:24:44.763Z,90.00
2017-06-15T04:25:41.027Z,91.00
2017-06-15T04:26:37.348Z,93.00
2017-06-15T04:27:33.642Z,94.00
2017-06-15T04:28:29.944Z,94.00
2017-06-15T04:29:26.256Z,95.00
2017-06-15T04:30:22.550Z,95.00
2017-06-15T04:31:18.806Z,96.00
2017-06-15T04:32:15.046Z,96.00
2017-06-15T04:33:11.310Z,97.00
2017-06-15T04:34:07.602Z,98.00
2017-06-15T04:35:03.859Z,101.00
2017-06-15T04:36:00.102Z,101.00
2017-06-15T04:36:56.338Z,101.00
2017-06-15T04:37:52.603Z,102.00
2017-06-15T04:38:48.847Z,102.00
2017-06-15T04:39:45.147Z,104.00
2017-06-15T04:40:41.412Z,105.00
2017-06-15T04:41:37.690Z,106.00
2017-06-15T04:42:33.968Z,106.00
2017-06-15T04:43:30.219Z,106.00
2017-06-15T04:44:26.511Z,107.00
2017-06-15T04:45:22.758Z,107.00
2017-06-15T04:46:19.015Z,108.00
2017-06-15T04:47:15.262Z,110.00
2017-06-15T04:48:11.502Z,112.00
2017-06-15T04:49:07.747Z,111.00
2017-06-15T04:50:04.094Z,111.00
2017-06-15T04:51:00.346Z,112.00
2017-06-15T04:51:56.591Z,113.00
2017-06-15T04:52:52.850Z,114.00
2017-06-15T04:53:49.129Z,115.00
2017-06-15T04:54:45.386Z,117.00
2017-06-15T04:55:41.668Z,118.00
2017-06-15T04:56:37.910Z,118.00
2017-06-15T04:57:34.159Z,118.00
2017-06-15T04:58:30.406Z,120.00
2017-06-15T04:59:26.690Z,120.00
2017-06-15T05:00:22.978Z,121.00
2017-06-15T05:01:19.226Z,122.00
2017-06-15T05:02:15.479Z,123.00
2017-06-15T05:03:11.799Z,124.00
2017-06-15T05:04:08.066Z,124.00
2017-06-15T05:05:04.323Z,125.00
2017-06-15T05:06:00.583Z,126.00
2017-06-15T05:06:56.844Z,127.00
2017-06-15T05:07:53.103Z,127.00
2017-06-15T05:08:49.367Z,128.00
2017-06-15T05:09:45.629Z,128.00
2017-06-15T05:10:41.906Z,129.00
2017-06-15T05:11:38.215Z,129.00
2017-06-15T05:12:34.471Z,132.00
2017-06-15T05:13:30.719Z,135.00
2017-06-15T05:14:26.994Z,133.00
2017-06-15T05:15:23.255Z,133.00
2017-06-15T05:16:19.510Z,134.00
2017-06-15T05:17:15.770Z,134.00
2017-06-15T05:18:12.045Z,135.00
2017-06-15T05:19:08.323Z,135.00
2017-06-15T05:20:04.583Z,136.00
2017-06-15T05:21:00.842Z,137.00
2017-06-15T05:21:57.130Z,138.00
2017-06-15T05:22:53.378Z,139.00
2017-06-15T05:23:49.635Z,139.00
2017-06-15T05:24:45.886Z,139.00
2017-06-15T05:25:42.134Z,140.00
2017-06-15T05:26:38.391Z,141.00
2017-06-15T05:27:34.654Z,141.00
2017-06-15T05:28:30.914Z,142.00
2017-06-15T05:29:27.179Z,142.00
2017-06-15T05:30:23.482Z,143.00
2017-06-15T05:31:19.742Z,143.00
2017-06-15T05:32:16.006Z,144.00
2017-06-15T05:33:12.260Z,146.00
2017-06-15T05:34:08.530Z,146.00
2017-06-15T05:35:04.789Z,147.00
2017-06-15T05:36:01.059Z,148.00
2017-06-15T05:36:57.312Z,149.00
2017-06-15T05:37:53.588Z,151.00
2017-06-15T05:38:49.846Z,152.00
2017-06-15T05:39:46.119Z,152.00
2017-06-15T05:40:42.371Z,154.00
2017-06-15T05:41:38.646Z,156.00
2017-06-15T05:42:35.846Z,0.00
2017-06-15T05:43:32.110Z,2509.00
2017-06-15T05:44:28.363Z,0.00
2017-06-15T05:45:24.623Z,0.00
2017-06-15T05:46:20.884Z,2533.00
2017-06-15T05:47:17.143Z,0.00
2017-06-15T05:48:13.403Z,2539.00
2017-06-15T05:49:09.662Z,2545.00
2017-06-15T05:50:05.920Z,2550.00
2017-06-15T05:51:02.196Z,2563.00
2017-06-15T05:51:58.479Z,2597.00
2017-06-15T05:52:54.763Z,2625.00
2017-06-15T05:53:51.014Z,2650.00
2017-06-15T05:54:47.274Z,2680.00
2017-06-15T05:55:43.537Z,2702.00
2017-06-15T05:56:39.831Z,2734.00
2017-06-15T05:57:36.090Z,2776.00
2017-06-15T05:58:32.363Z,2781.00
2017-06-15T05:59:28.616Z,2771.00
2017-06-15T06:00:24.898Z,2921.00
2017-06-15T06:01:21.166Z,2928.00
2017-06-15T06:02:17.431Z,2958.00
2017-06-15T06:03:13.709Z,3041.00
2017-06-15T06:04:09.983Z,3012.00
2017-06-15T06:05:06.223Z,2978.00
2017-06-15T06:06:02.471Z,2980.00
2017-06-15T06:06:58.718Z,3023.00
2017-06-15T06:07:54.992Z,2969.00
2017-06-15T06:08:51.263Z,3039.00
2017-06-15T06:09:47.515Z,3012.00
2017-06-15T06:10:43.774Z,3000.00
2017-06-15T06:11:40.034Z,3076.00
2017-06-15T06:12:36.319Z,3039.00
2017-06-15T06:13:32.574Z,3058.00
2017-06-15T06:14:28.830Z,3081.00
2017-06-15T06:15:25.083Z,3085.00
2017-06-15T06:16:21.326Z,3098.00
2017-06-15T06:17:17.587Z,3116.00
2017-06-15T06:18:13.834Z,3147.00
2017-06-15T06:19:10.111Z,3161.00
2017-06-15T06:20:06.416Z,3179.00
2017-06-15T06:21:02.683Z,3190.00
2017-06-15T06:21:58.946Z,3186.00
2017-06-15T06:22:55.187Z,3191.00
2017-06-15T06:23:51.439Z,3188.00
2017-06-15T06:24:47.716Z,3206.00
2017-06-15T06:25:43.982Z,3218.00
2017-06-15T06:26:40.282Z,3238.00
2017-06-15T06:27:36.739Z,3255.00
2017-06-15T06:28:32.995Z,3281.00
2017-06-15T06:29:29.255Z,3312.00
2017-06-15T06:30:25.547Z,3320.00
2017-06-15T06:31:21.822Z,3349.00
2017-06-15T06:32:18.087Z,3388.00
2017-06-15T06:33:14.557Z,3392.00
2017-06-15T06:34:10.947Z,3419.00
2017-06-15T06:35:07.410Z,3373.00
2017-06-15T06:36:03.678Z,3391.00
2017-06-15T06:36:59.934Z,3420.00
2017-06-15T06:37:56.184Z,3420.00
2017-06-15T06:38:52.618Z,3411.00
2017-06-15T06:39:48.878Z,3416.00
2017-06-15T06:40:45.151Z,3424.00
2017-06-15T06:41:41.419Z,3444.00
2017-06-15T06:42:37.667Z,3452.00
2017-06-15T06:43:33.918Z,3460.00
2017-06-15T06:44:30.222Z,3480.00
2017-06-15T06:45:26.476Z,3491.00
2017-06-15T06:46:26.641Z,3522.00
2017-06-15T06:47:23.114Z,3527.00
2017-06-15T06:48:19.375Z,3522.00
2017-06-15T06:49:15.643Z,3612.00
2017-06-15T06:50:11.911Z,3560.00
2017-06-15T06:51:08.336Z,3771.00
2017-06-15T06:52:04.750Z,3741.00
2017-06-15T06:53:01.223Z,3693.00
2017-06-15T06:53:57.478Z,3658.00
2017-06-15T06:54:53.863Z,3656.00
2017-06-15T06:55:50.118Z,3666.00
2017-06-15T06:56:46.390Z,3666.00
2017-06-15T06:57:42.659Z,3673.00
2017-06-15T06:58:38.887Z,3683.00
2017-06-15T06:59:35.431Z,3743.00
2017-06-15T07:00:31.827Z,3708.00
2017-06-15T07:01:28.087Z,3694.00
2017-06-15T07:02:24.351Z,3687.00
2017-06-15T07:03:20.630Z,3690.00
2017-06-15T07:04:16.886Z,3698.00
2017-06-15T07:05:13.135Z,3705.00
2017-06-15T07:06:09.382Z,3712.00
2017-06-15T07:07:06.231Z,3726.00
2017-06-15T07:08:02.500Z,3769.00
2017-06-15T07:08:58.759Z,3865.00
2017-06-15T07:09:55.031Z,3887.00
2017-06-15T07:10:51.299Z,3801.00
2017-06-15T07:11:47.570Z,3819.00
2017-06-15T07:12:43.828Z,3853.00
2017-06-15T07:13:40.092Z,3842.00
2017-06-15T07:14:36.372Z,3885.00
2017-06-15T07:15:32.647Z,3850.00
2017-06-15T07:16:28.910Z,3850.00
2017-06-15T07:17:25.204Z,3861.00
2017-06-15T07:18:21.550Z,3883.00
2017-06-15T07:19:18.027Z,3862.00
2017-06-15T07:20:14.534Z,3874.00
2017-06-15T07:21:10.791Z,3884.00
2017-06-15T07:22:07.137Z,3896.00
2017-06-15T07:23:03.427Z,3903.00
2017-06-15T07:23:59.695Z,3918.00
2017-06-15T07:24:55.938Z,3942.00
2017-06-15T07:25:52.211Z,3957.00
2017-06-15T07:26:48.467Z,3962.00
2017-06-15T07:27:44.857Z,3956.00
2017-06-15T07:28:41.142Z,3970.00
2017-06-15T07:29:37.393Z,3978.00
2017-06-15T07:30:33.647Z,3985.00
2017-06-15T07:31:29.907Z,3989.00
2017-06-15T07:32:26.217Z,4004.00
2017-06-15T07:33:22.507Z,4004.00
2017-06-15T07:34:18.789Z,4031.00
2017-06-15T07:35:16.351Z,4048.00
2017-06-15T07:36:12.608Z,4070.00
2017-06-15T07:37:08.855Z,4110.00
2017-06-15T07:38:05.125Z,4141.00
2017-06-15T07:39:01.388Z,4170.00
2017-06-15T07:39:57.670Z,4243.00
2017-06-15T07:40:53.926Z,4323.00
2017-06-15T07:41:50.520Z,4345.00
2017-06-15T07:42:46.916Z,4368.00
2017-06-15T07:43:43.216Z,4375.00
2017-06-15T07:44:39.471Z,4384.00
2017-06-15T07:45:35.751Z,4363.00
2017-06-15T07:46:32.012Z,4368.00
2017-06-15T07:47:28.542Z,4406.00
2017-06-15T07:48:25.167Z,4441.00
2017-06-15T07:49:21.410Z,4547.00
2017-06-15T07:50:17.697Z,4599.00
2017-06-15T07:51:13.934Z,4637.00
2017-06-15T07:52:10.186Z,4655.00
2017-06-15T07:53:06.420Z,4713.00
2017-06-15T07:54:02.679Z,4831.00
2017-06-15T07:54:58.948Z,5014.00
2017-06-15T07:55:55.223Z,5211.00
2017-06-15T07:56:51.479Z,5497.00
2017-06-15T07:57:47.743Z,5740.00
2017-06-15T07:58:43.987Z,5664.00
2017-06-15T07:59:40.252Z,6285.00
2017-06-15T08:00:36.570Z,6008.00
2017-06-15T08:01:32.835Z,5517.00
2017-06-15T08:02:29.302Z,5448.00
2017-06-15T08:03:25.666Z,5395.00
2017-06-15T08:04:21.972Z,5259.00
2017-06-15T08:05:18.239Z,5154.00
2017-06-15T08:06:14.599Z,5064.00
2017-06-15T08:07:11.167Z,4957.00
2017-06-15T08:08:07.848Z,4887.00
2017-06-15T08:09:04.250Z,4895.00
2017-06-15T08:10:00.630Z,4935.00
2017-06-15T08:10:57.082Z,4988.00
2017-06-15T08:11:53.599Z,5071.00
2017-06-15T08:12:49.967Z,5148.00
2017-06-15T08:13:46.218Z,5199.00
2017-06-15T08:14:42.470Z,5360.00
2017-06-15T08:15:38.723Z,5601.00
2017-06-15T08:16:34.979Z,5709.00
2017-06-15T08:17:31.254Z,5874.00
2017-06-15T08:18:27.518Z,6142.00
2017-06-15T08:19:23.758Z,6332.00
2017-06-15T08:20:20.007Z,0.00
2017-06-15T08:21:16.263Z,0.00
2017-06-15T08:22:12.558Z,0.00
2017-06-15T08:23:08.807Z,0.00
2017-06-15T08:24:05.095Z,0.00
2017-06-15T08:25:01.370Z,0.00
2017-06-15T08:25:57.618Z,0.00
2017-06-15T08:26:53.883Z,0.00
2017-06-15T08:27:50.147Z,0.00
2017-06-15T08:28:46.397Z,0.00
2017-06-15T08:29:42.639Z,0.00
2017-06-15T08:30:38.890Z,0.00
2017-06-15T08:31:35.143Z,0.00
2017-06-15T08:32:31.390Z,0.00
2017-06-15T08:33:27.670Z,0.00
2017-06-15T08:34:23.936Z,0.00
2017-06-15T08:35:20.182Z,0.00
2017-06-15T08:36:16.430Z,0.00
2017-06-15T08:37:12.698Z,0.00
2017-06-15T08:38:09.007Z,0.00
2017-06-15T08:39:05.291Z,0.00
2017-06-15T08:40:01.555Z,0.00
2017-06-15T08:40:57.821Z,0.00
2017-06-15T08:41:54.090Z,0.00
2017-06-15T08:42:50.351Z,0.00
2017-06-15T08:43:46.734Z,0.00
2017-06-15T08:44:43.057Z,0.00
2017-06-15T08:45:42.486Z,0.00
2017-06-15T08:46:38.759Z,0.00
2017-06-15T08:47:35.019Z,0.00
2017-06-15T08:48:31.283Z,0.00
2017-06-15T08:49:27.558Z,0.00
2017-06-15T08:50:23.812Z,0.00
2017-06-15T08:51:20.078Z,0.00
2017-06-15T08:52:16.323Z,0.00
2017-06-15T08:53:12.582Z,0.00
2017-06-15T08:54:08.854Z,0.00
2017-06-15T08:55:05.134Z,0.00
2017-06-15T08:56:01.554Z,0.00
2017-06-15T08:56:57.795Z,0.00
2017-06-15T08:57:54.055Z,0.00
2017-06-15T08:58:50.355Z,0.00
2017-06-15T08:59:46.667Z,0.00
2017-06-15T09:00:42.950Z,0.00
2017-06-15T09:01:39.286Z,0.00
2017-06-15T09:02:35.588Z,0.00
2017-06-15T09:03:31.834Z,0.00
2017-06-15T09:04:28.088Z,0.00
2017-06-15T09:05:24.354Z,0.00
2017-06-15T09:06:20.619Z,0.00
2017-06-15T09:07:16.879Z,0.00
2017-06-15T09:08:13.130Z,0.00
2017-06-15T09:09:09.367Z,0.00
2017-06-15T09:10:05.630Z,0.00
2017-06-15T09:11:01.903Z,0.00
2017-06-15T09:11:58.168Z,0.00
2017-06-15T09:12:54.414Z,0.00
2017-06-15T09:13:50.654Z,0.00
2017-06-15T09:14:46.902Z,0.00
2017-06-15T09:15:43.150Z,0.00
2017-06-15T09:16:39.411Z,0.00
2017-06-15T09:17:35.670Z,0.00
2017-06-15T09:18:31.919Z,0.00
2017-06-15T09:19:28.170Z,0.00
2017-06-15T09:20:24.424Z,0.00
2017-06-15T09:21:20.683Z,0.00
2017-06-15T09:22:16.922Z,0.00
2017-06-15T09:23:13.169Z,0.00
2017-06-15T09:24:09.430Z,0.00
2017-06-15T09:25:05.683Z,0.00
2017-06-15T09:26:01.942Z,0.00
2017-06-15T09:26:58.219Z,0.00
2017-06-15T09:27:54.458Z,0.00
2017-06-15T09:28:50.703Z,0.00
2017-06-15T09:29:46.951Z,0.00
2017-06-15T09:30:43.187Z,0.00
2017-06-15T09:31:39.434Z,0.00
2017-06-15T09:32:35.733Z,0.00
2017-06-15T09:33:31.984Z,0.00
2017-06-15T09:34:28.242Z,0.00
2017-06-15T09:35:24.506Z,0.00
2017-06-15T09:36:20.754Z,0.00
2017-06-15T09:37:16.999Z,0.00
2017-06-15T09:38:13.267Z,0.00
2017-06-15T09:39:09.543Z,0.00
2017-06-15T09:40:05.831Z,0.00
2017-06-15T09:41:02.095Z,0.00
2017-06-15T09:41:58.371Z,0.00
2017-06-15T09:42:54.630Z,0.00
2017-06-15T09:43:50.892Z,0.00
2017-06-15T09:44:47.150Z,0.00
2017-06-15T09:45:43.391Z,0.00
2017-06-15T09:46:39.636Z,0.00
2017-06-15T09:47:35.887Z,0.00
2017-06-15T09:48:32.147Z,0.00
2017-06-15T09:49:28.414Z,0.00
2017-06-15T09:50:24.665Z,0.00
2017-06-15T09:51:20.902Z,0.00
2017-06-15T09:52:17.154Z,0.00
2017-06-15T09:53:13.406Z,0.00
2017-06-15T09:54:09.654Z,0.00
2017-06-15T09:55:05.911Z,0.00
2017-06-15T09:56:02.160Z,0.00
2017-06-15T09:56:58.432Z,0.00
2017-06-15T09:57:54.694Z,0.00
2017-06-15T09:58:51.023Z,0.00
2017-06-15T09:59:47.423Z,0.00
2017-06-15T10:00:43.679Z,0.00
2017-06-15T10:01:39.931Z,0.00
2017-06-15T10:02:36.185Z,0.00
2017-06-15T10:03:32.437Z,0.00
2017-06-15T10:04:28.695Z,0.00
2017-06-15T10:05:24.955Z,0.00
2017-06-15T10:06:21.434Z,0.00
2017-06-15T10:07:17.687Z,0.00
2017-06-15T10:08:13.939Z,0.00
2017-06-15T10:09:10.215Z,0.00
2017-06-15T10:10:06.639Z,0.00
2017-06-15T10:11:02.884Z,0.00
2017-06-15T10:11:59.123Z,0.00
2017-06-15T10:12:55.374Z,0.00
2017-06-15T10:13:51.622Z,0.00
2017-06-15T10:14:47.863Z,0.00
2017-06-15T10:15:44.174Z,0.00
2017-06-15T10:16:40.490Z,0.00
2017-06-15T10:17:36.839Z,0.00
2017-06-15T10:18:33.079Z,0.00
2017-06-15T10:19:29.335Z,0.00
2017-06-15T10:20:25.602Z,0.00
2017-06-15T10:21:21.855Z,0.00
2017-06-15T10:22:18.298Z,0.00
2017-06-15T10:23:14.631Z,0.00
2017-06-15T10:24:10.891Z,0.00
2017-06-15T10:25:07.155Z,0.00
2017-06-15T10:26:03.521Z,0.00
2017-06-15T10:26:59.779Z,0.00
2017-06-15T10:27:56.034Z,0.00
2017-06-15T10:28:52.283Z,0.00
2017-06-15T10:29:48.638Z,0.00
2017-06-15T10:30:44.886Z,0.00
2017-06-15T10:31:41.147Z,0.00
2017-06-15T10:32:37.400Z,0.00
2017-06-15T10:33:33.646Z,0.00
2017-06-15T10:34:29.891Z,0.00
2017-06-15T10:35:26.147Z,0.00
2017-06-15T10:36:22.393Z,0.00
2017-06-15T10:37:18.654Z,0.00
2017-06-15T10:38:14.907Z,0.00
2017-06-15T10:39:11.162Z,0.00
2017-06-15T10:40:07.414Z,0.00
2017-06-15T10:41:03.675Z,0.00
2017-06-15T10:41:59.931Z,0.00
2017-06-15T10:42:56.190Z,0.00
2017-06-15T10:43:52.474Z,0.00
2017-06-15T10:44:48.712Z,0.00
2017-06-15T10:45:44.959Z,0.00
2017-06-15T10:46:41.203Z,0.00
2017-06-15T10:47:37.466Z,0.00
2017-06-15T10:48:33.703Z,0.00
2017-06-15T10:49:29.959Z,0.00
2017-06-15T10:50:26.217Z,0.00
2017-06-15T10:51:22.502Z,0.00
2017-06-15T10:52:18.760Z,0.00
2017-06-15T10:53:15.055Z,0.00
2017-06-15T10:54:11.313Z,0.00
2017-06-15T10:55:07.555Z,0.00
2017-06-15T10:56:03.794Z,0.00
2017-06-15T10:57:00.054Z,0.00
2017-06-15T10:57:56.296Z,0.00
2017-06-15T10:58:52.574Z,0.00
2017-06-15T10:59:48.814Z,0.00
2017-06-15T11:00:45.054Z,0.00
2017-06-15T11:01:41.306Z,0.00
2017-06-15T11:02:37.550Z,0.00
2017-06-15T11:03:33.797Z,0.00
2017-06-15T11:04:30.055Z,0.00
2017-06-15T11:05:26.299Z,0.00
2017-06-15T11:06:22.559Z,0.00
2017-06-15T11:07:18.830Z,0.00
2017-06-15T11:08:15.130Z,0.00
2017-06-15T11:09:11.383Z,0.00
2017-06-15T11:10:07.820Z,0.00
2017-06-15T11:11:04.066Z,0.00
2017-06-15T11:12:00.306Z,0.00
2017-06-15T11:12:56.550Z,0.00
2017-06-15T11:13:52.794Z,0.00
2017-06-15T11:14:49.052Z,0.00
2017-06-15T11:15:45.318Z,0.00
2017-06-15T11:16:41.562Z,0.00
2017-06-15T11:17:37.807Z,0.00
2017-06-15T11:18:34.058Z,0.00
2017-06-15T11:19:30.326Z,0.00
2017-06-15T11:20:26.641Z,0.00
2017-06-15T11:21:22.891Z,0.00
2017-06-15T11:22:19.143Z,0.00
2017-06-15T11:23:15.395Z,0.00
2017-06-15T11:24:11.639Z,0.00
2017-06-15T11:25:07.899Z,0.00
2017-06-15T11:26:04.175Z,0.00
2017-06-15T11:27:00.406Z,0.00
2017-06-15T11:27:56.647Z,0.00
2017-06-15T11:28:52.919Z,0.00
2017-06-15T11:29:49.168Z,0.00
2017-06-15T11:30:45.444Z,0.00
2017-06-15T11:31:41.695Z,0.00
2017-06-15T11:32:37.950Z,0.00
2017-06-15T11:33:34.215Z,0.00
2017-06-15T11:34:30.465Z,0.00
2017-06-15T11:35:26.719Z,0.00
2017-06-15T11:36:22.979Z,0.00
2017-06-15T11:37:19.236Z,0.00
2017-06-15T11:38:15.507Z,0.00
2017-06-15T11:39:11.771Z,0.00
2017-06-15T11:40:08.038Z,0.00
2017-06-15T11:41:04.331Z,0.00
2017-06-15T11:42:00.583Z,0.00
2017-06-15T11:42:56.850Z,0.00
2017-06-15T11:43:53.091Z,0.00
2017-06-15T11:44:49.371Z,0.00
2017-06-15T11:45:45.640Z,0.00
2017-06-15T11:46:41.905Z,0.00
2017-06-15T11:47:38.154Z,0.00
2017-06-15T11:48:34.415Z,0.00
2017-06-15T11:49:30.670Z,0.00
2017-06-15T11:50:26.923Z,0.00
2017-06-15T11:51:23.195Z,0.00
2017-06-15T11:52:19.440Z,0.00
2017-06-15T11:53:15.700Z,0.00
2017-06-15T11:54:11.952Z,0.00
2017-06-15T11:55:08.211Z,0.00
2017-06-15T11:56:04.458Z,0.00
2017-06-15T11:57:00.727Z,0.00
2017-06-15T11:57:56.981Z,0.00
2017-06-15T11:58:53.233Z,0.00
2017-06-15T11:59:49.494Z,0.00
2017-06-15T12:00:45.781Z,0.00
2017-06-15T12:01:42.186Z,0.00
2017-06-15T12:02:38.815Z,0.00
2017-06-15T12:03:35.062Z,0.00
2017-06-15T12:04:31.311Z,0.00
2017-06-15T12:05:27.581Z,0.00
2017-06-15T12:06:23.865Z,0.00